Hanna, Canada
Current Conditions -  °F | °C
As of 4:00 PM on Thursday 18 Dec 2014 (Local Time) from CYQF Reporting Station
Broken Clouds Broken Clouds  
Wind Chill: 23°   Ceiling: 14000
Heat Index: 23°   Visibility: 15mi
Dew Point: 19°   Wind: 3mph
Humidity: 86%   Direction: 340°NNW
Pressure: 29.79"   Gusts: NA
Location:  51.64°N, 111.94°W
Report Text: CYQF 182300Z 34003KT 15SM BKN140 M05/M07 A2979 RMK AC7 VIRGA SLP148
Loading
Personal Weather Stations






























Interactive Weather Map New forecast layout! Learn more

10-Day Weather Forecast

Advertisements
Track Severe Weather on mobile